Aeroporto :
LOGIN :

Iscrizione | Disclaimer

   EN    FR    IT 

 










Sommario :    VFR   VFR Marginale   IFR   IFR Intensivo   IFR Molto Intensivo
Visibilità : 
Base nubi : 
>= 8 km
>= 3000ft
5 / 8 km
1000 / 3000 ft
1500m / 5 km
500 / 1000 ft
800 / 1500m
200 / 500 ft
< 800m
< 200 ft
Simboli :   Temporali  Nebbia  Neve Forte  Precipitazioni Forti  Vento > 20 kt
SIGMETs :   Varie  Temporali  Ghiacco  Turbolenza  Onda orograficha  Ceneri Vulcaniche






- Altitudine del aeroporto : 472 ft
- Codice IATA : GME


UMGG - Gomel

ULTIMO METAR :
  • 191900Z 20004MPS CAVOK 03/00 Q1015 R10/D NOSIG

METARs OBSOLETI :
  • 191800Z 20004MPS CAVOK 04/00 Q1015 R10/D NOSIG
  • 191730Z 20003MPS CAVOK 04/00 Q1015 R10/CLRD// NOSIG
  • 191700Z 18003MPS CAVOK 04/00 Q1015 R28/D NOSIG

TAF TAF UMGG
Valido dal 19 a 18 ore il 20 a 18 ore UTC


191654Z 1918/2018 20005MPS 9999 BKN013 TX03/1918Z TNM00/2002Z
TEMPO 1921/2006 2000 -SHSNRA BR BKN005 SCT015CB
TEMPO 2010/2015 2100 -SHRASN BR BKN007 SCT015CB
TEMPO 2015/2018 2000 BR BKN005



MetMap, La meteo Aeronautica in un colpo d'occhio ! - Copyright ORBIFLY Dicembre 2007 - Disclaimer

ORBIFLY MET'MAP TEAM :

Programmazione e sviluppo : Alexandra Zaïnal
Concezione : Baudouin d'Aumeries
Aiuto per la programmazione : Marc-Olivier Méhu
Supporto tecnico e logistico : Manuel Goepfert
Aiuto per la traduzione : Arnaldo La Scala

Contatto : metmap@orbifly.com




FONTI E CREDITI :

   NOAA